sensor_id;sensor_type;location;lat;lon;timestamp;P1;durP1;ratioP1;P2;durP2;ratioP2
49758;SDS011;35654;46.080;11.118;2022-08-18T00:00:28;12.02;;;4.50;;
49758;SDS011;35654;46.080;11.118;2022-08-18T00:02:57;11.55;;;4.88;;
49758;SDS011;35654;46.080;11.118;2022-08-18T00:05:24;13.05;;;5.10;;
49758;SDS011;35654;46.080;11.118;2022-08-18T00:07:50;15.90;;;4.80;;
49758;SDS011;35654;46.080;11.118;2022-08-18T00:10:15;11.80;;;5.03;;
49758;SDS011;35654;46.080;11.118;2022-08-18T00:12:41;12.65;;;5.03;;
49758;SDS011;35654;46.080;11.118;2022-08-18T00:15:08;15.75;;;4.93;;
49758;SDS011;35654;46.080;11.118;2022-08-18T00:17:36;14.27;;;4.85;;
49758;SDS011;35654;46.080;11.118;2022-08-18T00:20:06;9.43;;;4.82;;
49758;SDS011;35654;46.080;11.118;2022-08-18T00:22:33;11.65;;;4.75;;
49758;SDS011;35654;46.080;11.118;2022-08-18T00:24:59;12.02;;;4.65;;
49758;SDS011;35654;46.080;11.118;2022-08-18T00:27:26;14.85;;;4.78;;
49758;SDS011;35654;46.080;11.118;2022-08-18T00:29:55;14.63;;;5.10;;
49758;SDS011;35654;46.080;11.118;2022-08-18T00:32:23;14.73;;;4.70;;
49758;SDS011;35654;46.080;11.118;2022-08-18T00:35:02;12.75;;;4.63;;
49758;SDS011;35654;46.080;11.118;2022-08-18T00:37:29;13.23;;;5.00;;
49758;SDS011;35654;46.080;11.118;2022-08-18T00:39:55;15.77;;;5.50;;
49758;SDS011;35654;46.080;11.118;2022-08-18T00:42:22;14.80;;;4.72;;
49758;SDS011;35654;46.080;11.118;2022-08-18T00:44:50;12.85;;;4.93;;
49758;SDS011;35654;46.080;11.118;2022-08-18T00:47:16;12.32;;;4.90;;
49758;SDS011;35654;46.080;11.118;2022-08-18T00:49:43;13.63;;;5.03;;
49758;SDS011;35654;46.080;11.118;2022-08-18T00:52:11;14.32;;;5.30;;
49758;SDS011;35654;46.080;11.118;2022-08-18T00:54:39;14.30;;;5.00;;
49758;SDS011;35654;46.080;11.118;2022-08-18T00:57:06;12.80;;;4.53;;
49758;SDS011;35654;46.080;11.118;2022-08-18T00:59:55;11.73;;;5.22;;
49758;SDS011;35654;46.080;11.118;2022-08-18T01:02:23;10.95;;;4.95;;
49758;SDS011;35654;46.080;11.118;2022-08-18T01:04:55;14.15;;;5.57;;
49758;SDS011;35654;46.080;11.118;2022-08-18T01:07:35;13.75;;;5.35;;
49758;SDS011;35654;46.080;11.118;2022-08-18T01:10:10;15.50;;;5.18;;
49758;SDS011;35654;46.080;11.118;2022-08-18T01:12:41;13.60;;;5.10;;
49758;SDS011;35654;46.080;11.118;2022-08-18T01:15:07;15.75;;;5.70;;
49758;SDS011;35654;46.080;11.118;2022-08-18T01:17:34;17.65;;;5.95;;
49758;SDS011;35654;46.080;11.118;2022-08-18T01:20:20;13.10;;;5.20;;
49758;SDS011;35654;46.080;11.118;2022-08-18T01:23:13;16.50;;;5.35;;
49758;SDS011;35654;46.080;11.118;2022-08-18T01:25:41;9.65;;;4.75;;
49758;SDS011;35654;46.080;11.118;2022-08-18T01:28:29;11.25;;;5.82;;
49758;SDS011;35654;46.080;11.118;2022-08-18T01:30:56;12.55;;;5.60;;
49758;SDS011;35654;46.080;11.118;2022-08-18T01:33:27;14.95;;;5.65;;
49758;SDS011;35654;46.080;11.118;2022-08-18T01:36:01;18.08;;;5.22;;
49758;SDS011;35654;46.080;11.118;2022-08-18T01:38:36;15.95;;;5.70;;
49758;SDS011;35654;46.080;11.118;2022-08-18T01:41:04;12.13;;;5.40;;
49758;SDS011;35654;46.080;11.118;2022-08-18T01:43:31;11.00;;;5.45;;
49758;SDS011;35654;46.080;11.118;2022-08-18T01:45:58;13.98;;;5.70;;
49758;SDS011;35654;46.080;11.118;2022-08-18T01:48:25;14.77;;;5.68;;
49758;SDS011;35654;46.080;11.118;2022-08-18T01:50:52;12.38;;;5.78;;
49758;SDS011;35654;46.080;11.118;2022-08-18T01:53:18;11.65;;;5.50;;
49758;SDS011;35654;46.080;11.118;2022-08-18T01:55:43;15.50;;;5.95;;
49758;SDS011;35654;46.080;11.118;2022-08-18T01:58:09;12.05;;;5.53;;
49758;SDS011;35654;46.080;11.118;2022-08-18T02:00:35;13.27;;;5.68;;
49758;SDS011;35654;46.080;11.118;2022-08-18T02:03:01;19.20;;;5.70;;
49758;SDS011;35654;46.080;11.118;2022-08-18T02:05:33;18.45;;;6.25;;
49758;SDS011;35654;46.080;11.118;2022-08-18T02:08:00;12.35;;;4.95;;
49758;SDS011;35654;46.080;11.118;2022-08-18T02:12:52;12.95;;;5.32;;
49758;SDS011;35654;46.080;11.118;2022-08-18T02:15:17;13.27;;;5.37;;
49758;SDS011;35654;46.080;11.118;2022-08-18T02:17:44;11.85;;;5.28;;
49758;SDS011;35654;46.080;11.118;2022-08-18T02:20:11;14.63;;;5.60;;
49758;SDS011;35654;46.080;11.118;2022-08-18T02:22:40;16.15;;;5.88;;
49758;SDS011;35654;46.080;11.118;2022-08-18T02:25:06;12.55;;;5.13;;
49758;SDS011;35654;46.080;11.118;2022-08-18T02:29:59;15.98;;;5.85;;
49758;SDS011;35654;46.080;11.118;2022-08-18T02:32:26;12.20;;;5.75;;
49758;SDS011;35654;46.080;11.118;2022-08-18T02:34:51;12.48;;;5.65;;
49758;SDS011;35654;46.080;11.118;2022-08-18T02:37:16;14.20;;;5.50;;
49758;SDS011;35654;46.080;11.118;2022-08-18T02:39:42;12.77;;;5.53;;
49758;SDS011;35654;46.080;11.118;2022-08-18T02:42:08;12.35;;;5.47;;
49758;SDS011;35654;46.080;11.118;2022-08-18T02:44:34;12.15;;;5.93;;
49758;SDS011;35654;46.080;11.118;2022-08-18T02:49:25;11.88;;;5.80;;
49758;SDS011;35654;46.080;11.118;2022-08-18T02:51:51;11.75;;;5.20;;
49758;SDS011;35654;46.080;11.118;2022-08-18T02:54:18;12.43;;;5.60;;
49758;SDS011;35654;46.080;11.118;2022-08-18T02:56:44;14.30;;;5.57;;
49758;SDS011;35654;46.080;11.118;2022-08-18T03:01:42;13.77;;;5.82;;
49758;SDS011;35654;46.080;11.118;2022-08-18T03:04:11;11.88;;;5.47;;
49758;SDS011;35654;46.080;11.118;2022-08-18T03:06:40;13.93;;;5.97;;
49758;SDS011;35654;46.080;11.118;2022-08-18T03:09:07;15.38;;;5.97;;
49758;SDS011;35654;46.080;11.118;2022-08-18T03:11:34;15.68;;;6.10;;
49758;SDS011;35654;46.080;11.118;2022-08-18T03:14:00;19.77;;;6.30;;
49758;SDS011;35654;46.080;11.118;2022-08-18T03:16:26;9.43;;;5.80;;
49758;SDS011;35654;46.080;11.118;2022-08-18T03:18:56;12.63;;;5.82;;
49758;SDS011;35654;46.080;11.118;2022-08-18T03:21:24;13.77;;;5.90;;
49758;SDS011;35654;46.080;11.118;2022-08-18T03:23:51;14.32;;;6.15;;
49758;SDS011;35654;46.080;11.118;2022-08-18T03:26:18;13.02;;;6.05;;
49758;SDS011;35654;46.080;11.118;2022-08-18T03:28:46;10.90;;;6.10;;
49758;SDS011;35654;46.080;11.118;2022-08-18T03:31:14;16.35;;;6.30;;
49758;SDS011;35654;46.080;11.118;2022-08-18T03:33:41;10.57;;;5.63;;
49758;SDS011;35654;46.080;11.118;2022-08-18T03:38:33;12.57;;;6.37;;
49758;SDS011;35654;46.080;11.118;2022-08-18T03:40:59;21.38;;;7.70;;
49758;SDS011;35654;46.080;11.118;2022-08-18T03:43:25;24.52;;;7.78;;
49758;SDS011;35654;46.080;11.118;2022-08-18T03:45:51;14.90;;;7.25;;
49758;SDS011;35654;46.080;11.118;2022-08-18T03:48:18;19.27;;;8.27;;
49758;SDS011;35654;46.080;11.118;2022-08-18T03:50:45;17.52;;;7.82;;
49758;SDS011;35654;46.080;11.118;2022-08-18T03:53:12;23.27;;;8.88;;
49758;SDS011;35654;46.080;11.118;2022-08-18T03:55:41;19.52;;;8.18;;
49758;SDS011;35654;46.080;11.118;2022-08-18T03:58:07;18.85;;;8.73;;
49758;SDS011;35654;46.080;11.118;2022-08-18T04:00:36;15.10;;;8.00;;
49758;SDS011;35654;46.080;11.118;2022-08-18T04:03:03;19.67;;;8.60;;
49758;SDS011;35654;46.080;11.118;2022-08-18T04:05:29;15.98;;;8.48;;
49758;SDS011;35654;46.080;11.118;2022-08-18T04:07:54;15.50;;;8.70;;
49758;SDS011;35654;46.080;11.118;2022-08-18T04:10:21;18.17;;;9.00;;
49758;SDS011;35654;46.080;11.118;2022-08-18T04:12:47;16.40;;;8.57;;
49758;SDS011;35654;46.080;11.118;2022-08-18T04:15:13;21.83;;;9.20;;
49758;SDS011;35654;46.080;11.118;2022-08-18T04:17:38;19.87;;;8.83;;
49758;SDS011;35654;46.080;11.118;2022-08-18T04:20:04;20.88;;;9.85;;
49758;SDS011;35654;46.080;11.118;2022-08-18T04:22:30;17.50;;;9.18;;
49758;SDS011;35654;46.080;11.118;2022-08-18T04:24:58;15.98;;;8.90;;
49758;SDS011;35654;46.080;11.118;2022-08-18T04:27:25;19.98;;;8.48;;
49758;SDS011;35654;46.080;11.118;2022-08-18T04:29:51;17.05;;;9.63;;
49758;SDS011;35654;46.080;11.118;2022-08-18T04:32:17;19.17;;;9.63;;
49758;SDS011;35654;46.080;11.118;2022-08-18T04:37:09;17.80;;;9.90;;
49758;SDS011;35654;46.080;11.118;2022-08-18T04:39:34;25.83;;;10.18;;
49758;SDS011;35654;46.080;11.118;2022-08-18T04:42:01;22.00;;;10.40;;
49758;SDS011;35654;46.080;11.118;2022-08-18T04:44:28;22.40;;;10.82;;
49758;SDS011;35654;46.080;11.118;2022-08-18T04:46:53;18.73;;;9.87;;
49758;SDS011;35654;46.080;11.118;2022-08-18T04:49:20;23.43;;;10.73;;
49758;SDS011;35654;46.080;11.118;2022-08-18T04:51:49;22.35;;;10.68;;
49758;SDS011;35654;46.080;11.118;2022-08-18T04:54:35;22.25;;;10.40;;
49758;SDS011;35654;46.080;11.118;2022-08-18T04:57:10;18.95;;;10.73;;
49758;SDS011;35654;46.080;11.118;2022-08-18T04:59:38;22.25;;;10.48;;
49758;SDS011;35654;46.080;11.118;2022-08-18T05:02:05;18.13;;;10.60;;
49758;SDS011;35654;46.080;11.118;2022-08-18T05:04:33;19.63;;;9.95;;
49758;SDS011;35654;46.080;11.118;2022-08-18T05:07:03;24.77;;;11.70;;
49758;SDS011;35654;46.080;11.118;2022-08-18T05:09:29;22.38;;;11.40;;
49758;SDS011;35654;46.080;11.118;2022-08-18T05:11:55;24.17;;;11.50;;
49758;SDS011;35654;46.080;11.118;2022-08-18T05:14:20;25.97;;;11.73;;
49758;SDS011;35654;46.080;11.118;2022-08-18T05:16:46;18.67;;;11.50;;
49758;SDS011;35654;46.080;11.118;2022-08-18T05:19:12;28.23;;;11.00;;
49758;SDS011;35654;46.080;11.118;2022-08-18T05:21:39;18.48;;;10.77;;
49758;SDS011;35654;46.080;11.118;2022-08-18T05:24:06;20.55;;;11.02;;
49758;SDS011;35654;46.080;11.118;2022-08-18T05:26:33;21.75;;;10.43;;
49758;SDS011;35654;46.080;11.118;2022-08-18T05:31:25;18.33;;;9.60;;
49758;SDS011;35654;46.080;11.118;2022-08-18T05:33:52;19.20;;;10.07;;
49758;SDS011;35654;46.080;11.118;2022-08-18T05:41:21;23.52;;;10.15;;
49758;SDS011;35654;46.080;11.118;2022-08-18T05:43:52;23.92;;;10.65;;
49758;SDS011;35654;46.080;11.118;2022-08-18T05:48:46;24.58;;;10.77;;
49758;SDS011;35654;46.080;11.118;2022-08-18T05:51:14;19.90;;;9.97;;
49758;SDS011;35654;46.080;11.118;2022-08-18T05:53:43;20.60;;;9.75;;
49758;SDS011;35654;46.080;11.118;2022-08-18T05:56:30;18.38;;;9.85;;
49758;SDS011;35654;46.080;11.118;2022-08-18T05:59:23;16.58;;;9.23;;
49758;SDS011;35654;46.080;11.118;2022-08-18T06:01:52;20.27;;;9.45;;
49758;SDS011;35654;46.080;11.118;2022-08-18T06:07:30;20.83;;;10.35;;
49758;SDS011;35654;46.080;11.118;2022-08-18T06:10:01;20.58;;;9.70;;
49758;SDS011;35654;46.080;11.118;2022-08-18T06:18:10;21.58;;;9.88;;
49758;SDS011;35654;46.080;11.118;2022-08-18T06:26:35;20.42;;;10.07;;
49758;SDS011;35654;46.080;11.118;2022-08-18T06:32:33;21.05;;;10.93;;
49758;SDS011;35654;46.080;11.118;2022-08-18T06:35:16;16.27;;;8.65;;
49758;SDS011;35654;46.080;11.118;2022-08-18T06:41:18;24.45;;;10.57;;
49758;SDS011;35654;46.080;11.118;2022-08-18T06:43:58;25.73;;;10.68;;
49758;SDS011;35654;46.080;11.118;2022-08-18T06:55:01;20.88;;;10.07;;
49758;SDS011;35654;46.080;11.118;2022-08-18T06:57:54;22.17;;;11.25;;
49758;SDS011;35654;46.080;11.118;2022-08-18T07:00:30;24.67;;;9.73;;
49758;SDS011;35654;46.080;11.118;2022-08-18T07:03:04;19.73;;;9.07;;
49758;SDS011;35654;46.080;11.118;2022-08-18T07:05:36;25.20;;;12.32;;
49758;SDS011;35654;46.080;11.118;2022-08-18T07:11:56;20.58;;;10.52;;
49758;SDS011;35654;46.080;11.118;2022-08-18T07:14:43;24.83;;;10.85;;
49758;SDS011;35654;46.080;11.118;2022-08-18T07:16:47;28.25;;;11.13;;
49758;SDS011;35654;46.080;11.118;2022-08-18T07:19:14;22.85;;;8.98;;
49758;SDS011;35654;46.080;11.118;2022-08-18T07:21:44;19.02;;;9.20;;
49758;SDS011;35654;46.080;11.118;2022-08-18T07:24:24;18.27;;;9.15;;
49758;SDS011;35654;46.080;11.118;2022-08-18T07:27:04;21.00;;;10.00;;
49758;SDS011;35654;46.080;11.118;2022-08-18T07:33:31;18.92;;;10.18;;
49758;SDS011;35654;46.080;11.118;2022-08-18T07:35:47;22.95;;;11.15;;
49758;SDS011;35654;46.080;11.118;2022-08-18T07:38:21;28.67;;;10.25;;
49758;SDS011;35654;46.080;11.118;2022-08-18T07:43:45;19.75;;;9.65;;
49758;SDS011;35654;46.080;11.118;2022-08-18T07:48:59;23.08;;;9.68;;
49758;SDS011;35654;46.080;11.118;2022-08-18T07:51:37;23.10;;;10.82;;
49758;SDS011;35654;46.080;11.118;2022-08-18T07:59:38;26.02;;;11.55;;
49758;SDS011;35654;46.080;11.118;2022-08-18T08:08:00;26.65;;;12.80;;
49758;SDS011;35654;46.080;11.118;2022-08-18T08:18:35;18.77;;;10.02;;
49758;SDS011;35654;46.080;11.118;2022-08-18T08:32:19;19.42;;;10.13;;
49758;SDS011;35654;46.080;11.118;2022-08-18T08:35:02;21.10;;;11.35;;
49758;SDS011;35654;46.080;11.118;2022-08-18T08:40:04;18.50;;;10.05;;
49758;SDS011;35654;46.080;11.118;2022-08-18T08:42:39;20.15;;;11.23;;
49758;SDS011;35654;46.080;11.118;2022-08-18T08:45:11;21.00;;;10.80;;
49758;SDS011;35654;46.080;11.118;2022-08-18T08:51:12;24.33;;;11.63;;
49758;SDS011;35654;46.080;11.118;2022-08-18T08:54:19;27.45;;;10.32;;
49758;SDS011;35654;46.080;11.118;2022-08-18T08:56:54;26.95;;;11.65;;
49758;SDS011;35654;46.080;11.118;2022-08-18T08:59:23;22.55;;;10.65;;
49758;SDS011;35654;46.080;11.118;2022-08-18T09:10:17;18.42;;;9.13;;
49758;SDS011;35654;46.080;11.118;2022-08-18T09:15:41;15.57;;;8.25;;
49758;SDS011;35654;46.080;11.118;2022-08-18T09:18:17;17.50;;;7.90;;
49758;SDS011;35654;46.080;11.118;2022-08-18T09:23:41;20.42;;;8.32;;
49758;SDS011;35654;46.080;11.118;2022-08-18T09:29:20;13.73;;;6.32;;
49758;SDS011;35654;46.080;11.118;2022-08-18T09:32:28;20.88;;;7.28;;
49758;SDS011;35654;46.080;11.118;2022-08-18T09:37:25;12.00;;;6.05;;
49758;SDS011;35654;46.080;11.118;2022-08-18T09:39:59;13.75;;;6.47;;
49758;SDS011;35654;46.080;11.118;2022-08-18T09:42:54;12.50;;;6.30;;
49758;SDS011;35654;46.080;11.118;2022-08-18T09:48:01;13.63;;;6.40;;
49758;SDS011;35654;46.080;11.118;2022-08-18T09:50:50;12.48;;;6.10;;
49758;SDS011;35654;46.080;11.118;2022-08-18T09:55:57;13.20;;;5.85;;
49758;SDS011;35654;46.080;11.118;2022-08-18T10:06:43;11.40;;;5.60;;
49758;SDS011;35654;46.080;11.118;2022-08-18T10:09:14;12.70;;;6.47;;
49758;SDS011;35654;46.080;11.118;2022-08-18T10:12:03;11.25;;;6.30;;
49758;SDS011;35654;46.080;11.118;2022-08-18T10:32:21;11.85;;;6.78;;
49758;SDS011;35654;46.080;11.118;2022-08-18T10:36:54;16.58;;;6.50;;
49758;SDS011;35654;46.080;11.118;2022-08-18T10:39:26;15.95;;;7.50;;
49758;SDS011;35654;46.080;11.118;2022-08-18T10:44:36;12.00;;;6.80;;
49758;SDS011;35654;46.080;11.118;2022-08-18T10:47:06;18.77;;;7.63;;
49758;SDS011;35654;46.080;11.118;2022-08-18T10:49:34;16.25;;;7.15;;
49758;SDS011;35654;46.080;11.118;2022-08-18T10:57:33;15.20;;;7.10;;
49758;SDS011;35654;46.080;11.118;2022-08-18T11:00:19;21.30;;;7.95;;
49758;SDS011;35654;46.080;11.118;2022-08-18T11:03:00;16.35;;;7.38;;
49758;SDS011;35654;46.080;11.118;2022-08-18T11:05:49;26.15;;;8.27;;
49758;SDS011;35654;46.080;11.118;2022-08-18T11:08:24;18.38;;;8.35;;
49758;SDS011;35654;46.080;11.118;2022-08-18T11:10:49;21.70;;;8.83;;
49758;SDS011;35654;46.080;11.118;2022-08-18T11:13:29;22.60;;;9.07;;
49758;SDS011;35654;46.080;11.118;2022-08-18T11:21:22;19.77;;;9.23;;
49758;SDS011;35654;46.080;11.118;2022-08-18T11:26:29;17.83;;;7.72;;
49758;SDS011;35654;46.080;11.118;2022-08-18T11:28:55;13.80;;;6.55;;
49758;SDS011;35654;46.080;11.118;2022-08-18T11:31:21;21.48;;;8.45;;
49758;SDS011;35654;46.080;11.118;2022-08-18T11:33:47;22.77;;;8.70;;
49758;SDS011;35654;46.080;11.118;2022-08-18T11:36:13;20.40;;;8.60;;
49758;SDS011;35654;46.080;11.118;2022-08-18T11:38:40;22.20;;;9.35;;
49758;SDS011;35654;46.080;11.118;2022-08-18T11:41:19;20.98;;;10.45;;
49758;SDS011;35654;46.080;11.118;2022-08-18T11:43:54;26.02;;;10.25;;
49758;SDS011;35654;46.080;11.118;2022-08-18T11:46:26;23.38;;;9.30;;
49758;SDS011;35654;46.080;11.118;2022-08-18T11:52:13;25.13;;;9.43;;
49758;SDS011;35654;46.080;11.118;2022-08-18T11:54:45;18.63;;;9.85;;
49758;SDS011;35654;46.080;11.118;2022-08-18T11:57:26;17.80;;;8.07;;
49758;SDS011;35654;46.080;11.118;2022-08-18T12:00:52;20.25;;;8.50;;
49758;SDS011;35654;46.080;11.118;2022-08-18T12:05:46;16.47;;;8.30;;
49758;SDS011;35654;46.080;11.118;2022-08-18T12:08:22;18.70;;;8.23;;
49758;SDS011;35654;46.080;11.118;2022-08-18T12:11:00;17.70;;;6.78;;
49758;SDS011;35654;46.080;11.118;2022-08-18T12:13:31;20.52;;;9.35;;
49758;SDS011;35654;46.080;11.118;2022-08-18T12:18:57;19.80;;;8.35;;
49758;SDS011;35654;46.080;11.118;2022-08-18T12:21:23;11.73;;;6.95;;
49758;SDS011;35654;46.080;11.118;2022-08-18T12:23:48;16.02;;;7.82;;
49758;SDS011;35654;46.080;11.118;2022-08-18T12:26:14;17.33;;;7.55;;
49758;SDS011;35654;46.080;11.118;2022-08-18T12:28:40;22.58;;;9.30;;
49758;SDS011;35654;46.080;11.118;2022-08-18T12:31:06;16.98;;;7.68;;
49758;SDS011;35654;46.080;11.118;2022-08-18T12:33:32;14.98;;;7.57;;
49758;SDS011;35654;46.080;11.118;2022-08-18T12:35:59;14.32;;;7.00;;
49758;SDS011;35654;46.080;11.118;2022-08-18T12:38:25;15.32;;;7.00;;
49758;SDS011;35654;46.080;11.118;2022-08-18T12:40:51;13.75;;;6.22;;
49758;SDS011;35654;46.080;11.118;2022-08-18T12:43:17;10.95;;;6.32;;
49758;SDS011;35654;46.080;11.118;2022-08-18T12:45:43;16.65;;;7.05;;
49758;SDS011;35654;46.080;11.118;2022-08-18T12:48:08;14.37;;;6.73;;
49758;SDS011;35654;46.080;11.118;2022-08-18T12:50:34;15.37;;;7.00;;
49758;SDS011;35654;46.080;11.118;2022-08-18T12:53:00;16.45;;;7.45;;
49758;SDS011;35654;46.080;11.118;2022-08-18T12:55:27;17.33;;;7.80;;
49758;SDS011;35654;46.080;11.118;2022-08-18T12:57:55;14.88;;;7.97;;
49758;SDS011;35654;46.080;11.118;2022-08-18T13:00:20;13.53;;;6.40;;
49758;SDS011;35654;46.080;11.118;2022-08-18T13:02:46;12.23;;;6.63;;
49758;SDS011;35654;46.080;11.118;2022-08-18T13:05:11;12.98;;;5.70;;
49758;SDS011;35654;46.080;11.118;2022-08-18T13:07:37;12.63;;;6.87;;
49758;SDS011;35654;46.080;11.118;2022-08-18T13:10:03;16.40;;;7.20;;
49758;SDS011;35654;46.080;11.118;2022-08-18T13:12:29;12.60;;;6.82;;
49758;SDS011;35654;46.080;11.118;2022-08-18T13:14:54;18.17;;;6.13;;
49758;SDS011;35654;46.080;11.118;2022-08-18T13:17:20;14.93;;;6.50;;
49758;SDS011;35654;46.080;11.118;2022-08-18T13:19:45;18.98;;;6.82;;
49758;SDS011;35654;46.080;11.118;2022-08-18T13:22:11;16.58;;;6.15;;
49758;SDS011;35654;46.080;11.118;2022-08-18T13:24:37;20.38;;;7.30;;
49758;SDS011;35654;46.080;11.118;2022-08-18T13:27:03;14.00;;;6.10;;
49758;SDS011;35654;46.080;11.118;2022-08-18T13:31:54;14.00;;;6.63;;
49758;SDS011;35654;46.080;11.118;2022-08-18T13:34:23;16.45;;;6.20;;
49758;SDS011;35654;46.080;11.118;2022-08-18T13:36:52;13.40;;;5.75;;
49758;SDS011;35654;46.080;11.118;2022-08-18T13:39:19;15.15;;;6.60;;
49758;SDS011;35654;46.080;11.118;2022-08-18T13:41:48;16.50;;;7.05;;
49758;SDS011;35654;46.080;11.118;2022-08-18T13:44:16;18.08;;;6.43;;
49758;SDS011;35654;46.080;11.118;2022-08-18T13:46:42;14.07;;;6.07;;
49758;SDS011;35654;46.080;11.118;2022-08-18T13:49:15;11.55;;;6.20;;
49758;SDS011;35654;46.080;11.118;2022-08-18T13:51:42;15.93;;;6.15;;
49758;SDS011;35654;46.080;11.118;2022-08-18T13:54:10;13.93;;;6.63;;
49758;SDS011;35654;46.080;11.118;2022-08-18T13:56:42;11.93;;;7.20;;
49758;SDS011;35654;46.080;11.118;2022-08-18T13:59:08;13.02;;;6.15;;
49758;SDS011;35654;46.080;11.118;2022-08-18T14:01:34;13.10;;;7.00;;
49758;SDS011;35654;46.080;11.118;2022-08-18T14:04:00;13.65;;;6.50;;
49758;SDS011;35654;46.080;11.118;2022-08-18T14:06:26;11.27;;;5.60;;
49758;SDS011;35654;46.080;11.118;2022-08-18T14:08:51;11.40;;;5.40;;
49758;SDS011;35654;46.080;11.118;2022-08-18T14:13:52;12.55;;;5.20;;
49758;SDS011;35654;46.080;11.118;2022-08-18T14:16:18;11.55;;;5.80;;
49758;SDS011;35654;46.080;11.118;2022-08-18T14:18:45;11.35;;;5.50;;
49758;SDS011;35654;46.080;11.118;2022-08-18T14:21:31;14.98;;;6.35;;
49758;SDS011;35654;46.080;11.118;2022-08-18T14:24:15;11.40;;;6.25;;
49758;SDS011;35654;46.080;11.118;2022-08-18T14:26:59;13.07;;;5.28;;
49758;SDS011;35654;46.080;11.118;2022-08-18T14:29:24;10.13;;;5.10;;
49758;SDS011;35654;46.080;11.118;2022-08-18T14:31:50;7.45;;;4.15;;
49758;SDS011;35654;46.080;11.118;2022-08-18T14:34:16;14.20;;;4.65;;
49758;SDS011;35654;46.080;11.118;2022-08-18T14:36:41;11.55;;;4.53;;
49758;SDS011;35654;46.080;11.118;2022-08-18T14:39:06;10.35;;;3.67;;
49758;SDS011;35654;46.080;11.118;2022-08-18T14:41:32;6.75;;;3.50;;
49758;SDS011;35654;46.080;11.118;2022-08-18T14:43:58;7.45;;;3.20;;
49758;SDS011;35654;46.080;11.118;2022-08-18T14:46:25;6.93;;;3.05;;
49758;SDS011;35654;46.080;11.118;2022-08-18T14:48:50;7.45;;;2.90;;
49758;SDS011;35654;46.080;11.118;2022-08-18T14:51:16;9.18;;;4.25;;
49758;SDS011;35654;46.080;11.118;2022-08-18T14:53:41;6.65;;;2.90;;
49758;SDS011;35654;46.080;11.118;2022-08-18T14:56:07;6.53;;;2.90;;
49758;SDS011;35654;46.080;11.118;2022-08-18T14:58:35;8.18;;;2.95;;
49758;SDS011;35654;46.080;11.118;2022-08-18T15:01:03;6.32;;;3.00;;
49758;SDS011;35654;46.080;11.118;2022-08-18T15:03:31;6.28;;;3.10;;
49758;SDS011;35654;46.080;11.118;2022-08-18T15:05:59;14.93;;;3.70;;
49758;SDS011;35654;46.080;11.118;2022-08-18T15:08:26;7.88;;;3.13;;
49758;SDS011;35654;46.080;11.118;2022-08-18T15:10:52;6.72;;;3.10;;
49758;SDS011;35654;46.080;11.118;2022-08-18T15:13:18;6.95;;;2.97;;
49758;SDS011;35654;46.080;11.118;2022-08-18T15:15:43;7.70;;;2.70;;
49758;SDS011;35654;46.080;11.118;2022-08-18T15:18:09;5.10;;;2.60;;
49758;SDS011;35654;46.080;11.118;2022-08-18T15:20:35;6.32;;;2.78;;
49758;SDS011;35654;46.080;11.118;2022-08-18T15:23:20;8.63;;;2.70;;
49758;SDS011;35654;46.080;11.118;2022-08-18T15:26:06;8.73;;;2.78;;
49758;SDS011;35654;46.080;11.118;2022-08-18T15:28:32;8.38;;;3.50;;
49758;SDS011;35654;46.080;11.118;2022-08-18T15:30:58;6.55;;;2.80;;
49758;SDS011;35654;46.080;11.118;2022-08-18T15:33:23;8.57;;;2.63;;
49758;SDS011;35654;46.080;11.118;2022-08-18T15:35:50;4.80;;;2.22;;
49758;SDS011;35654;46.080;11.118;2022-08-18T15:38:17;4.65;;;2.63;;
49758;SDS011;35654;46.080;11.118;2022-08-18T15:40:53;7.70;;;3.50;;
49758;SDS011;35654;46.080;11.118;2022-08-18T15:43:24;8.05;;;2.92;;
49758;SDS011;35654;46.080;11.118;2022-08-18T15:45:51;6.68;;;2.80;;
49758;SDS011;35654;46.080;11.118;2022-08-18T15:48:18;7.10;;;3.50;;
49758;SDS011;35654;46.080;11.118;2022-08-18T15:50:45;8.00;;;3.20;;
49758;SDS011;35654;46.080;11.118;2022-08-18T15:53:13;6.55;;;2.60;;
49758;SDS011;35654;46.080;11.118;2022-08-18T15:55:40;5.50;;;2.30;;
49758;SDS011;35654;46.080;11.118;2022-08-18T15:58:06;11.75;;;2.60;;
49758;SDS011;35654;46.080;11.118;2022-08-18T16:00:34;5.93;;;2.40;;
49758;SDS011;35654;46.080;11.118;2022-08-18T16:03:09;8.38;;;2.60;;
49758;SDS011;35654;46.080;11.118;2022-08-18T16:05:39;5.18;;;2.90;;
49758;SDS011;35654;46.080;11.118;2022-08-18T16:08:09;7.25;;;2.20;;
49758;SDS011;35654;46.080;11.118;2022-08-18T16:10:36;5.03;;;2.25;;
49758;SDS011;35654;46.080;11.118;2022-08-18T16:13:03;4.18;;;2.42;;
49758;SDS011;35654;46.080;11.118;2022-08-18T16:15:32;5.72;;;2.50;;
49758;SDS011;35654;46.080;11.118;2022-08-18T16:17:59;8.23;;;2.72;;
49758;SDS011;35654;46.080;11.118;2022-08-18T16:20:25;6.53;;;2.40;;
49758;SDS011;35654;46.080;11.118;2022-08-18T16:22:51;5.38;;;2.03;;
49758;SDS011;35654;46.080;11.118;2022-08-18T16:25:17;7.82;;;2.38;;
49758;SDS011;35654;46.080;11.118;2022-08-18T16:27:43;3.78;;;1.70;;
49758;SDS011;35654;46.080;11.118;2022-08-18T16:30:11;4.57;;;2.20;;
49758;SDS011;35654;46.080;11.118;2022-08-18T16:32:42;6.22;;;2.15;;
49758;SDS011;35654;46.080;11.118;2022-08-18T16:35:09;5.07;;;2.13;;
49758;SDS011;35654;46.080;11.118;2022-08-18T16:37:35;6.18;;;2.10;;
49758;SDS011;35654;46.080;11.118;2022-08-18T16:40:00;4.63;;;1.95;;
49758;SDS011;35654;46.080;11.118;2022-08-18T16:42:26;8.93;;;2.50;;
49758;SDS011;35654;46.080;11.118;2022-08-18T16:45:00;4.95;;;2.17;;
49758;SDS011;35654;46.080;11.118;2022-08-18T16:47:28;6.70;;;2.97;;
49758;SDS011;35654;46.080;11.118;2022-08-18T16:49:55;7.82;;;2.58;;
49758;SDS011;35654;46.080;11.118;2022-08-18T16:52:20;5.72;;;2.20;;
49758;SDS011;35654;46.080;11.118;2022-08-18T16:54:46;8.40;;;2.22;;
49758;SDS011;35654;46.080;11.118;2022-08-18T16:57:12;6.72;;;2.75;;
49758;SDS011;35654;46.080;11.118;2022-08-18T16:59:58;4.80;;;2.37;;
49758;SDS011;35654;46.080;11.118;2022-08-18T17:02:42;5.05;;;2.60;;
49758;SDS011;35654;46.080;11.118;2022-08-18T17:05:26;6.00;;;2.28;;
49758;SDS011;35654;46.080;11.118;2022-08-18T17:07:51;6.93;;;2.30;;
49758;SDS011;35654;46.080;11.118;2022-08-18T17:10:16;5.47;;;2.60;;
49758;SDS011;35654;46.080;11.118;2022-08-18T17:15:07;6.10;;;2.38;;
49758;SDS011;35654;46.080;11.118;2022-08-18T17:19:58;6.87;;;2.90;;
49758;SDS011;35654;46.080;11.118;2022-08-18T17:22:23;7.22;;;2.40;;
49758;SDS011;35654;46.080;11.118;2022-08-18T17:24:49;4.38;;;2.55;;
49758;SDS011;35654;46.080;11.118;2022-08-18T17:27:19;10.32;;;2.60;;
49758;SDS011;35654;46.080;11.118;2022-08-18T17:35:00;5.88;;;3.00;;
49758;SDS011;35654;46.080;11.118;2022-08-18T17:37:30;5.60;;;2.88;;
49758;SDS011;35654;46.080;11.118;2022-08-18T17:39:56;7.32;;;2.88;;
49758;SDS011;35654;46.080;11.118;2022-08-18T17:42:27;6.53;;;2.92;;
49758;SDS011;35654;46.080;11.118;2022-08-18T17:44:59;12.68;;;2.60;;
49758;SDS011;35654;46.080;11.118;2022-08-18T17:48:12;6.10;;;2.95;;
49758;SDS011;35654;46.080;11.118;2022-08-18T17:50:36;6.32;;;2.50;;
49758;SDS011;35654;46.080;11.118;2022-08-18T17:53:29;6.63;;;2.90;;
49758;SDS011;35654;46.080;11.118;2022-08-18T17:56:00;10.95;;;2.90;;